Time;durP1;ratioP1;P1;durP2;ratioP2;P2;SDS_P1;SDS_P2;PMS_P1;PMS_P2;Temp;Humidity;BMP_temperature;BMP_pressure;BME280_temperature;BME280_humidity;BME280_pressure;Samples;Min_cycle;Max_cycle;Signal;HPM_P1;HPM_P2
2023/09/30 00:01:45;;;;;;;0.10;0.10;;;;;;;14.93;73.30;100100.22;4964129;28;20078;-70
2023/09/30 00:04:11;;;;;;;0.20;0.20;;;;;;;14.94;74.06;100110.13;4942634;28;20047;-69
2023/09/30 00:06:39;;;;;;;0.20;0.20;;;;;;;14.87;73.93;100102.22;4957368;28;20043;-69
2023/09/30 00:09:07;;;;;;;;;;;;;;;14.82;74.15;100111.38;4944386;28;20357;-69
2023/09/30 00:11:33;;;;;;;0.20;0.20;;;;;;;14.86;73.99;100106.09;4947786;28;20489;-68
2023/09/30 00:13:59;;;;;;;0.20;0.20;;;;;;;14.83;73.50;100103.94;4931796;29;20047;-70
2023/09/30 00:16:25;;;;;;;0.30;0.17;;;;;;;14.82;73.74;100100.34;4946860;28;20427;-70
2023/09/30 00:18:54;;;;;;;0.10;0.10;;;;;;;14.77;74.40;100107.88;4945471;28;20082;-70
2023/09/30 00:21:20;;;;;;;0.10;0.10;;;;;;;14.69;74.31;100099.13;4944661;29;20078;-69
2023/09/30 00:23:46;;;;;;;0.17;0.17;;;;;;;14.64;74.48;100098.38;4954143;28;20113;-70
2023/09/30 00:26:14;;;;;;;0.20;0.20;;;;;;;14.63;74.34;100105.00;4970390;28;20514;-69
2023/09/30 00:28:41;;;;;;;0.17;0.17;;;;;;;14.61;74.42;100097.84;4961094;28;20047;-70
2023/09/30 00:31:11;;;;;;;0.17;0.17;;;;;;;14.57;74.62;100099.56;4945527;28;20067;-69
2023/09/30 00:33:39;;;;;;;0.15;0.15;;;;;;;14.56;74.64;100097.94;4947885;28;20479;-69
2023/09/30 00:36:09;;;;;;;0.10;0.10;;;;;;;14.54;75.17;100096.56;4970051;28;20125;-69
2023/09/30 00:38:35;;;;;;;0.10;0.10;;;;;;;14.53;74.76;100095.78;4958859;28;20042;-67
2023/09/30 00:41:01;;;;;;;0.10;0.10;;;;;;;14.47;75.16;100094.16;4943772;28;20134;-69
2023/09/30 00:43:29;;;;;;;0.10;0.10;;;;;;;14.45;75.13;100090.91;4943943;28;20606;-70
2023/09/30 00:46:05;;;;;;;0.10;0.10;;;;;;;14.42;75.15;100099.75;4953880;28;20043;-69
2023/09/30 00:48:33;;;;;;;0.10;0.10;;;;;;;14.42;75.33;100094.25;4943825;28;20051;-69
2023/09/30 00:51:00;;;;;;;0.17;0.17;;;;;;;14.43;75.99;100093.94;4932010;28;20146;-68
2023/09/30 00:53:26;;;;;;;0.17;0.17;;;;;;;14.39;75.78;100081.88;4964200;28;20147;-68
2023/09/30 00:55:54;;;;;;;;;;;;;;;14.36;75.65;100087.16;4962134;28;20051;-67
2023/09/30 00:58:20;;;;;;;0.10;0.10;;;;;;;14.11;75.44;100045.09;4947141;28;19926;-68
2023/09/30 01:00:48;;;;;;;0.10;0.10;;;;;;;14.28;76.01;100077.63;4943341;28;20409;-69
2023/09/30 01:03:14;;;;;;;0.10;0.10;;;;;;;14.24;76.26;100073.81;4933301;28;20051;-69
2023/09/30 01:05:42;;;;;;;0.20;0.20;;;;;;;14.23;76.37;100081.25;4943754;28;20047;-68
2023/09/30 01:08:08;;;;;;;0.10;0.10;;;;;;;14.16;76.19;100073.38;4957499;28;20086;-69
2023/09/30 01:10:35;;;;;;;0.10;0.10;;;;;;;14.21;76.64;100086.25;4962649;28;20058;-69
2023/09/30 01:13:01;;;;;;;0.10;0.10;;;;;;;14.21;76.85;100079.91;4949929;28;20079;-69
2023/09/30 01:15:29;;;;;;;0.17;0.17;;;;;;;14.17;76.84;100086.00;4964952;28;20082;-68
2023/09/30 01:17:56;;;;;;;0.10;0.10;;;;;;;14.14;76.94;100081.09;4960772;28;20054;-70
2023/09/30 01:20:23;;;;;;;0.10;0.10;;;;;;;14.08;77.39;100087.75;4962769;28;20150;-69
2023/09/30 01:22:51;;;;;;;0.10;0.10;;;;;;;14.06;77.24;100095.47;4962152;28;20538;-71
2023/09/30 01:25:19;;;;;;;0.10;0.10;;;;;;;14.06;77.22;100086.41;4945584;28;20567;-69
2023/09/30 01:27:45;;;;;;;0.10;0.10;;;;;;;14.03;77.49;100088.59;4934389;28;20050;-71
2023/09/30 01:30:13;;;;;;;0.20;0.20;;;;;;;13.99;77.79;100082.06;4951660;28;20519;-68
2023/09/30 01:32:39;;;;;;;0.10;0.10;;;;;;;14.02;78.07;100089.72;4956522;28;20518;-69
2023/09/30 01:35:07;;;;;;;0.10;0.10;;;;;;;14.02;78.14;100080.66;4955620;28;20089;-70
2023/09/30 01:37:33;;;;;;;0.10;0.10;;;;;;;13.98;77.71;100080.41;4958497;28;20386;-70
2023/09/30 01:40:00;;;;;;;0.10;0.10;;;;;;;13.96;77.84;100085.41;4955916;28;20047;-69
2023/09/30 01:42:29;;;;;;;0.10;0.10;;;;;;;13.91;77.91;100077.22;4956143;28;20063;-70
2023/09/30 01:44:56;;;;;;;0.10;0.10;;;;;;;13.88;77.72;100083.25;4961775;28;20054;-69
2023/09/30 01:47:23;;;;;;;0.10;0.10;;;;;;;13.83;78.39;100086.06;4952253;28;20938;-69
2023/09/30 01:49:49;;;;;;;0.15;0.15;;;;;;;13.82;78.50;100079.78;4961229;28;20050;-69
2023/09/30 01:52:15;;;;;;;0.10;0.10;;;;;;;13.82;78.34;100084.44;4949907;28;20055;-69
2023/09/30 01:54:41;;;;;;;0.10;0.10;;;;;;;13.68;78.73;100065.88;4957913;28;20063;-69
2023/09/30 01:57:09;;;;;;;0.20;0.20;;;;;;;13.79;78.67;100079.53;4947993;28;20046;-68
2023/09/30 01:59:36;;;;;;;0.10;0.10;;;;;;;13.75;78.65;100082.03;4960071;28;20054;-68
2023/09/30 02:02:02;;;;;;;0.10;0.10;;;;;;;13.73;78.75;100084.25;4947316;28;20190;-68
2023/09/30 02:04:31;;;;;;;0.10;0.10;;;;;;;13.70;78.93;100079.34;4951682;28;20051;-69
2023/09/30 02:06:57;;;;;;;0.10;0.10;;;;;;;13.69;79.20;100080.44;4960595;28;20308;-69
2023/09/30 02:09:23;;;;;;;0.10;0.10;;;;;;;13.70;78.97;100079.34;4956532;28;20049;-69
2023/09/30 02:11:49;;;;;;;0.10;0.10;;;;;;;13.66;79.38;100078.25;4957458;28;20057;-68
2023/09/30 02:14:17;;;;;;;0.10;0.10;;;;;;;13.55;79.36;100055.56;4951337;28;20051;-67
2023/09/30 02:16:43;;;;;;;0.10;0.10;;;;;;;13.44;79.50;100043.84;4926163;28;20043;-67
2023/09/30 02:19:10;;;;;;;0.10;0.10;;;;;;;13.57;79.40;100067.06;4957121;28;20565;-68
2023/09/30 02:21:36;;;;;;;0.10;0.10;;;;;;;13.59;79.63;100078.59;4954754;28;20047;-69
2023/09/30 02:24:03;;;;;;;0.10;0.10;;;;;;;13.59;79.77;100075.88;4953021;28;20043;-69
2023/09/30 02:26:29;;;;;;;0.10;0.10;;;;;;;13.55;79.56;100072.03;4951658;28;20078;-67
2023/09/30 02:28:56;;;;;;;0.10;0.10;;;;;;;13.54;79.43;100073.16;4952719;28;20042;-69
2023/09/30 02:31:24;;;;;;;0.10;0.10;;;;;;;13.51;79.81;100079.22;4948782;28;20070;-68
2023/09/30 02:33:50;;;;;;;0.10;0.10;;;;;;;13.49;79.92;100074.00;4954638;28;20050;-67
2023/09/30 02:36:17;;;;;;;0.10;0.10;;;;;;;13.50;80.02;100072.09;4953044;28;20070;-68
2023/09/30 02:38:43;;;;;;;0.10;0.10;;;;;;;13.51;79.97;100069.06;4949010;28;20315;-69
2023/09/30 02:41:10;;;;;;;0.20;0.20;;;;;;;13.51;79.67;100063.56;4966983;28;20043;-68
2023/09/30 02:43:38;;;;;;;0.10;0.10;;;;;;;13.46;79.87;100066.34;4947582;28;20058;-69
2023/09/30 02:46:04;;;;;;;0.20;0.20;;;;;;;13.42;80.33;100060.56;4954667;28;20053;-68
2023/09/30 02:48:32;;;;;;;0.10;0.10;;;;;;;13.40;80.11;100060.03;4943458;28;20047;-69
2023/09/30 02:50:58;;;;;;;0.10;0.10;;;;;;;13.27;80.26;100030.50;4959667;28;20488;-68
2023/09/30 02:53:24;;;;;;;0.10;0.10;;;;;;;13.42;79.92;100059.75;4949318;28;20051;-68
2023/09/30 02:55:55;;;;;;;0.10;0.10;;;;;;;13.40;80.24;100061.97;4956034;28;20632;-68
2023/09/30 02:58:22;;;;;;;0.17;0.17;;;;;;;13.38;80.28;100056.75;4952720;28;20294;-69
2023/09/30 03:00:49;;;;;;;0.10;0.10;;;;;;;13.36;80.58;100053.47;4951934;28;20121;-69
2023/09/30 03:03:15;;;;;;;0.10;0.10;;;;;;;13.36;80.12;100053.47;4947963;28;20047;-67
2023/09/30 03:05:45;;;;;;;0.10;0.10;;;;;;;13.33;79.96;100051.31;4960943;28;20700;-68
2023/09/30 03:08:11;;;;;;;0.10;0.10;;;;;;;13.30;80.04;100047.22;4947829;28;20050;-68
2023/09/30 03:10:40;;;;;;;0.10;0.10;;;;;;;13.31;79.85;100050.78;4949478;28;20546;-69
2023/09/30 03:13:08;;;;;;;0.10;0.10;;;;;;;13.23;80.27;100041.25;4944461;28;20050;-69
2023/09/30 03:15:35;;;;;;;0.10;0.10;;;;;;;13.30;79.81;100049.97;4951755;28;20053;-69
2023/09/30 03:18:01;;;;;;;0.10;0.10;;;;;;;13.28;79.71;100046.69;4951167;28;20058;-69
2023/09/30 03:20:27;;;;;;;0.10;0.10;;;;;;;13.31;79.66;100053.53;4956423;28;20458;-68
2023/09/30 03:22:56;;;;;;;0.20;0.20;;;;;;;13.30;79.38;100035.44;4959016;28;20058;-70
2023/09/30 03:25:23;;;;;;;0.10;0.10;;;;;;;13.32;79.20;100050.50;4959226;28;20047;-70
2023/09/30 03:27:50;;;;;;;0.10;0.10;;;;;;;13.33;79.19;100045.84;4955633;28;20054;-70
2023/09/30 03:30:19;;;;;;;0.10;0.10;;;;;;;13.30;78.96;100047.22;4976546;28;20510;-69
2023/09/30 03:32:46;;;;;;;0.17;0.17;;;;;;;13.25;79.12;100041.78;4947798;28;20094;-70
2023/09/30 03:35:18;;;;;;;0.10;0.10;;;;;;;13.22;79.57;100042.34;4948013;28;20129;-69
2023/09/30 03:37:46;;;;;;;0.10;0.10;;;;;;;13.23;79.39;100046.75;4962997;28;20058;-69
2023/09/30 03:40:18;;;;;;;0.10;0.10;;;;;;;13.23;79.55;100041.25;4963629;28;20050;-70
2023/09/30 03:42:49;;;;;;;0.10;0.10;;;;;;;13.19;79.45;100042.94;4964911;28;20469;-69
2023/09/30 03:45:15;;;;;;;0.10;0.10;;;;;;;13.22;79.11;100041.53;4950400;28;20497;-70
2023/09/30 03:47:43;;;;;;;0.10;0.10;;;;;;;13.22;78.90;100038.78;4955869;28;20059;-71
2023/09/30 03:50:14;;;;;;;0.10;0.10;;;;;;;13.23;78.91;100041.25;4964146;28;20078;-69
2023/09/30 03:52:44;;;;;;;0.10;0.10;;;;;;;13.26;79.11;100043.41;4953834;28;20110;-69
2023/09/30 03:55:11;;;;;;;0.10;0.10;;;;;;;13.29;78.93;100044.78;4950434;28;20117;-70
2023/09/30 03:57:40;;;;;;;0.10;0.10;;;;;;;13.31;78.80;100046.09;4952337;28;20514;-70
2023/09/30 04:00:16;;;;;;;0.10;0.10;;;;;;;13.37;78.40;100041.41;4963357;28;20043;-70
2023/09/30 04:02:43;;;;;;;0.10;0.10;;;;;;;13.41;78.09;100041.66;4928414;28;20059;-70
2023/09/30 04:05:11;;;;;;;0.10;0.10;;;;;;;13.40;78.01;100040.81;4947003;28;20509;-69
2023/09/30 04:07:37;;;;;;;0.10;0.10;;;;;;;13.45;77.85;100049.06;4953236;28;20054;-69
2023/09/30 04:10:04;;;;;;;0.28;0.20;;;;;;;13.45;77.78;100046.31;4956178;28;20062;-69
2023/09/30 04:12:33;;;;;;;0.20;0.20;;;;;;;13.47;77.98;100044.09;4963693;28;20058;-70
2023/09/30 04:15:03;;;;;;;0.20;0.20;;;;;;;13.56;77.36;100048.94;4954642;28;20047;-69
2023/09/30 04:17:32;;;;;;;0.20;0.20;;;;;;;13.57;77.11;100039.59;4951141;28;20058;-69
2023/09/30 04:19:59;;;;;;;0.15;0.15;;;;;;;13.60;76.99;100034.34;4945354;28;20039;-69
2023/09/30 04:22:27;;;;;;;0.10;0.10;;;;;;;13.65;77.24;100041.72;4935973;29;20427;-70
2023/09/30 04:24:55;;;;;;;0.20;0.20;;;;;;;13.74;76.76;100045.50;4955257;28;20138;-69
2023/09/30 04:27:21;;;;;;;0.20;0.20;;;;;;;13.77;76.43;100037.78;4950012;28;20517;-70
2023/09/30 04:29:49;;;;;;;0.20;0.20;;;;;;;13.80;76.43;100043.50;4920788;28;20237;-69
2023/09/30 04:32:16;;;;;;;0.20;0.20;;;;;;;13.81;76.63;100050.63;4951299;28;20408;-70
2023/09/30 04:34:43;;;;;;;0.20;0.20;;;;;;;13.80;75.81;100039.94;4952054;28;20106;-69
2023/09/30 04:37:10;;;;;;;0.10;0.10;;;;;;;13.85;76.17;100053.63;4956065;28;20047;-70
2023/09/30 04:39:36;;;;;;;0.20;0.20;;;;;;;13.86;76.10;100053.34;4955837;28;20498;-70
2023/09/30 04:42:04;;;;;;;0.10;0.10;;;;;;;13.89;75.84;100040.91;4954566;28;20093;-70
2023/09/30 04:44:30;;;;;;;;;;;;;;;13.96;75.86;100035.09;4950540;28;20050;-70
2023/09/30 04:46:56;;;;;;;0.10;0.10;;;;;;;14.01;75.47;100040.53;4935699;28;19949;-70
2023/09/30 04:49:24;;;;;;;0.17;0.17;;;;;;;14.03;75.70;100036.38;4952981;28;20055;-70
2023/09/30 04:51:51;;;;;;;0.20;0.20;;;;;;;14.07;75.47;100033.88;4953783;28;20039;-71
2023/09/30 04:54:17;;;;;;;0.20;0.20;;;;;;;14.16;74.98;100042.28;4951742;28;20542;-71
2023/09/30 04:56:46;;;;;;;0.20;0.20;;;;;;;14.22;75.07;100043.03;4952828;28;20051;-71
2023/09/30 04:59:13;;;;;;;0.20;0.20;;;;;;;14.24;74.60;100047.16;4953633;28;20079;-71
2023/09/30 05:01:40;;;;;;;0.20;0.20;;;;;;;14.27;74.81;100045.72;4950343;28;20215;-71
2023/09/30 05:04:06;;;;;;;0.20;0.20;;;;;;;14.33;74.51;100050.06;4952238;28;20044;-70
2023/09/30 05:06:36;;;;;;;0.20;0.20;;;;;;;14.42;74.20;100044.72;4951849;28;20480;-71
2023/09/30 05:09:02;;;;;;;0.20;0.20;;;;;;;14.49;73.93;100038.88;4953882;28;20592;-71
2023/09/30 05:11:29;;;;;;;0.20;0.20;;;;;;;14.51;73.70;100042.94;4955996;28;20062;-69
2023/09/30 05:13:55;;;;;;;0.10;0.10;;;;;;;14.54;73.98;100039.63;4947849;28;20137;-69
2023/09/30 05:16:21;;;;;;;0.20;0.20;;;;;;;14.62;73.90;100046.41;4954186;28;20046;-69
2023/09/30 05:18:48;;;;;;;0.20;0.20;;;;;;;14.69;73.12;100040.53;4958352;28;20043;-70
2023/09/30 05:21:15;;;;;;;0.20;0.20;;;;;;;14.77;72.99;100037.13;4945021;28;20042;-70
2023/09/30 05:23:42;;;;;;;;;;;;;;;14.83;73.27;100041.47;4961729;28;20042;-70
2023/09/30 05:26:09;;;;;;;0.20;0.20;;;;;;;14.88;72.34;100041.38;4950790;28;19932;-71
2023/09/30 05:28:36;;;;;;;0.20;0.20;;;;;;;14.93;72.24;100037.75;4963802;28;20047;-70
2023/09/30 05:31:03;;;;;;;0.20;0.20;;;;;;;14.98;72.13;100029.38;4955582;28;20054;-70
2023/09/30 05:33:30;;;;;;;0.20;0.20;;;;;;;15.08;72.10;100038.63;4947770;28;20086;-70
2023/09/30 05:35:56;;;;;;;0.20;0.20;;;;;;;15.06;71.31;100018.81;4947957;28;20046;-70
2023/09/30 05:38:23;;;;;;;0.20;0.20;;;;;;;15.14;71.63;100029.97;4960491;28;20146;-70
2023/09/30 05:40:50;;;;;;;0.20;0.20;;;;;;;15.04;71.64;99991.59;4960391;28;20047;-70
2023/09/30 05:43:16;;;;;;;0.20;0.20;;;;;;;15.36;70.87;100030.44;4942348;28;21157;-70
2023/09/30 05:45:49;;;;;;;0.20;0.20;;;;;;;15.47;70.38;100026.41;4942384;28;20527;-70
2023/09/30 05:48:16;;;;;;;0.20;0.20;;;;;;;15.58;69.62;100019.59;4946035;28;20043;-70
2023/09/30 05:50:43;;;;;;;0.20;0.20;;;;;;;15.69;69.39;100014.69;4960976;28;20047;-70
2023/09/30 05:53:13;;;;;;;0.20;0.20;;;;;;;15.78;68.73;100016.78;4960248;28;20051;-70
2023/09/30 05:55:45;;;;;;;0.20;0.20;;;;;;;15.95;68.40;100027.22;4962553;28;20097;-70
2023/09/30 05:58:16;;;;;;;0.20;0.20;;;;;;;16.12;67.83;100019.13;4962601;28;20046;-71
2023/09/30 06:00:42;;;;;;;0.20;0.20;;;;;;;16.28;66.90;100011.38;4960687;28;20149;-69
2023/09/30 06:03:10;;;;;;;0.20;0.20;;;;;;;16.53;66.39;100013.91;4955091;28;20086;-70
2023/09/30 06:05:40;;;;;;;0.20;0.20;;;;;;;16.69;65.91;100017.94;4960802;28;20421;-70
2023/09/30 06:08:10;;;;;;;0.20;0.20;;;;;;;16.96;65.03;100012.63;4960331;28;20372;-70
2023/09/30 06:10:42;;;;;;;0.20;0.20;;;;;;;17.01;64.51;100012.53;4960487;28;20058;-69
2023/09/30 06:13:09;;;;;;;0.20;0.20;;;;;;;16.87;64.74;100010.66;4946284;28;20034;-69
2023/09/30 06:15:40;;;;;;;0.20;0.20;;;;;;;16.72;65.19;99998.00;4977374;28;20092;-69
2023/09/30 06:18:07;;;;;;;0.20;0.20;;;;;;;16.75;65.08;100009.53;4942445;29;20051;-70
2023/09/30 06:20:33;;;;;;;;;;;;;;;16.86;65.15;100010.94;4938183;28;20584;-70
2023/09/30 06:23:03;;;;;;;0.28;0.28;;;;;;;16.88;64.78;100008.69;4952867;28;19930;-71
2023/09/30 06:25:30;;;;;;;0.20;0.20;;;;;;;16.94;64.27;100003.84;4951965;28;20153;-70
2023/09/30 06:27:56;;;;;;;0.30;0.30;;;;;;;17.05;64.33;99996.16;4958985;28;20141;-69
2023/09/30 06:30:29;;;;;;;0.30;0.30;;;;;;;17.24;63.74;99996.78;4967777;28;20094;-69
2023/09/30 06:32:59;;;;;;;0.30;0.30;;;;;;;17.52;62.47;99993.06;4957793;28;20597;-69
2023/09/30 06:35:26;;;;;;;0.22;0.22;;;;;;;17.72;61.84;99988.94;4959869;28;20102;-69
2023/09/30 06:37:52;;;;;;;0.30;0.30;;;;;;;17.88;61.09;99991.28;4951847;28;20059;-70
2023/09/30 06:40:19;;;;;;;0.20;0.20;;;;;;;18.03;60.45;99992.81;4952714;28;20489;-70
2023/09/30 06:42:46;;;;;;;0.30;0.30;;;;;;;18.17;60.11;99976.91;4941317;28;20467;-70
2023/09/30 06:45:12;;;;;;;0.20;0.20;;;;;;;18.26;59.49;99986.06;4952031;28;20048;-70
2023/09/30 06:47:41;;;;;;;0.30;0.30;;;;;;;18.37;59.34;99983.78;4956725;28;20058;-71
2023/09/30 06:50:12;;;;;;;0.30;0.30;;;;;;;18.57;59.07;99981.53;4950472;28;20047;-69
2023/09/30 06:52:42;;;;;;;0.30;0.30;;;;;;;18.77;58.66;99974.53;4961439;28;20049;-70
2023/09/30 06:55:09;;;;;;;0.20;0.20;;;;;;;18.99;57.91;99976.34;4945253;28;20046;-71
2023/09/30 06:57:37;;;;;;;0.28;0.28;;;;;;;19.24;56.97;99984.94;4944679;28;20141;-71
2023/09/30 07:00:08;;;;;;;0.30;0.30;;;;;;;19.44;56.32;99982.63;4931551;29;20138;-70
2023/09/30 07:02:36;;;;;;;0.30;0.30;;;;;;;19.70;55.28;99979.75;4946581;28;20047;-69
2023/09/30 07:05:05;;;;;;;0.30;0.30;;;;;;;19.87;54.78;99971.66;4963807;28;20046;-70
2023/09/30 07:07:33;;;;;;;0.30;0.30;;;;;;;20.07;53.70;99979.28;4945426;28;20074;-69
2023/09/30 07:09:59;;;;;;;0.30;0.30;;;;;;;20.17;53.71;99975.31;4944337;28;20515;-70
2023/09/30 07:12:25;;;;;;;0.30;0.30;;;;;;;20.23;53.11;99970.38;4950513;28;20085;-69
2023/09/30 07:14:53;;;;;;;0.20;0.20;;;;;;;20.27;52.82;99963.78;4951539;28;20090;-70
2023/09/30 07:17:19;;;;;;;0.30;0.30;;;;;;;20.41;52.74;99979.38;4948614;28;20072;-70
2023/09/30 07:19:45;;;;;;;0.30;0.30;;;;;;;20.46;52.13;99978.38;4963082;28;20070;-70
2023/09/30 07:22:13;;;;;;;0.30;0.30;;;;;;;20.65;52.41;99970.38;4950223;28;20098;-70
2023/09/30 07:24:40;;;;;;;0.30;0.30;;;;;;;20.92;51.38;99968.22;4960972;28;20080;-70
2023/09/30 07:27:07;;;;;;;0.30;0.30;;;;;;;21.03;50.47;99968.63;4967439;28;20563;-70
2023/09/30 07:29:33;;;;;;;0.32;0.32;;;;;;;21.13;50.68;99972.13;4951581;28;20142;-70
2023/09/30 07:31:59;;;;;;;0.30;0.30;;;;;;;21.24;49.83;99965.00;4946512;28;20085;-70
2023/09/30 07:34:26;;;;;;;0.30;0.30;;;;;;;21.33;49.75;99971.25;4952563;28;20054;-70
2023/09/30 07:36:52;;;;;;;0.33;0.33;;;;;;;21.42;49.54;99965.59;4948823;28;20047;-70
2023/09/30 07:39:20;;;;;;;0.37;0.37;;;;;;;21.49;48.76;99959.47;4943981;29;20055;-69
2023/09/30 07:41:48;;;;;;;0.30;0.30;;;;;;;21.68;48.10;99953.38;4957529;28;20062;-70
2023/09/30 07:44:14;;;;;;;0.40;0.40;;;;;;;21.88;48.20;99959.19;4957831;28;20071;-71
2023/09/30 07:46:40;;;;;;;0.35;0.35;;;;;;;22.14;47.15;99966.38;4954059;28;20109;-70
2023/09/30 07:49:08;;;;;;;0.30;0.30;;;;;;;22.18;46.61;99964.50;4964877;28;20086;-71
2023/09/30 07:51:35;;;;;;;0.30;0.30;;;;;;;22.37;46.18;99952.75;4963141;28;20467;-69
2023/09/30 07:54:02;;;;;;;0.40;0.40;;;;;;;22.47;45.71;99957.03;4952449;28;20113;-69
2023/09/30 07:56:29;;;;;;;0.40;0.40;;;;;;;22.60;45.35;99949.47;4963928;28;20043;-70
2023/09/30 07:58:57;;;;;;;0.30;0.30;;;;;;;22.73;44.57;99958.63;4955020;28;20051;-70
2023/09/30 08:01:23;;;;;;;0.30;0.30;;;;;;;22.80;44.18;99948.50;4961649;28;20043;-70
2023/09/30 08:03:51;;;;;;;0.30;0.30;;;;;;;22.95;43.79;99954.47;4954233;28;20102;-70
2023/09/30 08:06:17;;;;;;;0.40;0.40;;;;;;;22.92;44.12;99944.00;4951502;28;20113;-69
2023/09/30 08:08:48;;;;;;;0.30;0.30;;;;;;;23.09;44.14;99942.88;4949707;28;20043;-70
2023/09/30 08:11:15;;;;;;;0.30;0.30;;;;;;;23.22;43.61;99936.06;4944545;28;20118;-70
2023/09/30 08:13:42;;;;;;;0.30;0.30;;;;;;;23.26;43.38;99946.50;4961983;28;20114;-70
2023/09/30 08:16:10;;;;;;;0.40;0.40;;;;;;;23.37;42.71;99936.50;4929852;28;20047;-70
2023/09/30 08:18:40;;;;;;;0.40;0.40;;;;;;;23.44;42.82;99938.66;4943541;28;20054;-71
2023/09/30 08:21:10;;;;;;;0.30;0.30;;;;;;;23.60;42.55;99930.28;4933721;28;20061;-70
2023/09/30 08:23:38;;;;;;;0.30;0.30;;;;;;;23.77;41.77;99937.47;4957558;28;20105;-69
2023/09/30 08:26:07;;;;;;;0.30;0.30;;;;;;;24.06;41.65;99935.41;4965814;28;20051;-71
2023/09/30 08:28:35;;;;;;;0.30;0.30;;;;;;;24.21;40.92;99939.31;4953000;28;20078;-71
2023/09/30 08:31:05;;;;;;;0.40;0.40;;;;;;;24.14;40.76;99926.00;4948065;28;20097;-71
2023/09/30 08:33:35;;;;;;;0.30;0.30;;;;;;;24.20;41.01;99932.09;4962483;28;20126;-70
2023/09/30 08:36:07;;;;;;;0.40;0.40;;;;;;;24.55;39.97;99924.88;4951510;28;20129;-70
2023/09/30 08:38:35;;;;;;;0.40;0.40;;;;;;;24.87;39.49;99922.72;4948001;28;20519;-70
2023/09/30 08:41:02;;;;;;;;;;;;;;;25.13;38.56;99928.81;4928588;29;20102;-70
2023/09/30 08:43:31;;;;;;;0.40;0.40;;;;;;;25.24;38.44;99913.03;4944927;28;19981;-70
2023/09/30 08:45:58;;;;;;;0.40;0.40;;;;;;;25.42;38.48;99910.56;4957872;28;20522;-70
2023/09/30 08:48:32;;;;;;;0.40;0.40;;;;;;;25.46;37.94;99913.41;4965631;28;20038;-70
2023/09/30 08:51:02;;;;;;;0.40;0.40;;;;;;;25.28;38.32;99921.50;4927004;29;20154;-71
2023/09/30 08:53:29;;;;;;;0.43;0.43;;;;;;;25.19;38.23;99907.75;4943397;28;20079;-70
2023/09/30 08:55:58;;;;;;;0.50;0.50;;;;;;;24.92;38.80;99916.03;4962619;28;20070;-70
2023/09/30 08:58:27;;;;;;;0.40;0.40;;;;;;;24.95;38.82;99897.72;4957372;28;20363;-70
2023/09/30 09:00:54;;;;;;;0.40;0.40;;;;;;;25.05;38.53;99895.13;4942969;28;20055;-70
2023/09/30 09:03:21;;;;;;;0.50;0.50;;;;;;;25.21;38.19;99902.59;4954667;28;20062;-70
2023/09/30 09:05:55;;;;;;;0.50;0.50;;;;;;;25.09;38.59;99909.19;4961673;28;20046;-70
2023/09/30 09:08:23;;;;;;;0.50;0.50;;;;;;;24.84;37.97;99901.13;4951733;28;20170;-70
2023/09/30 09:10:56;;;;;;;0.50;0.50;;;;;;;24.63;38.35;99910.69;4945482;28;20268;-71
2023/09/30 09:13:23;;;;;;;0.50;0.50;;;;;;;24.66;38.42;99908.31;4955329;28;20084;-71
2023/09/30 09:15:49;;;;;;;;;;;;;;;24.48;38.21;99900.38;4954124;28;20057;-71
2023/09/30 09:18:38;;;;;;;0.50;0.50;;;;;;;24.31;38.19;99896.03;4952063;28;19930;-70
2023/09/30 09:21:11;;;;;;;0.60;0.60;;;;;;;24.52;38.72;99880.91;4954306;28;20166;-71
2023/09/30 09:23:48;;;;;;;0.50;0.50;;;;;;;24.90;37.69;99894.06;4951748;28;20061;-69
2023/09/30 09:26:27;;;;;;;0.60;0.60;;;;;;;24.69;37.93;99902.81;4943912;28;20106;-69
2023/09/30 09:29:00;;;;;;;0.50;0.50;;;;;;;24.49;37.87;99883.22;4931787;28;20134;-70
2023/09/30 09:31:29;;;;;;;0.50;0.50;;;;;;;24.59;38.14;99887.44;4939043;28;20299;-70
2023/09/30 09:33:55;;;;;;;0.50;0.50;;;;;;;24.81;37.49;99887.06;4963168;28;20425;-69
2023/09/30 09:36:39;;;;;;;0.60;0.60;;;;;;;25.09;36.14;99898.00;4960773;28;20046;-69
2023/09/30 09:39:07;;;;;;;0.60;0.60;;;;;;;24.90;35.70;99880.09;4947779;28;20055;-69
2023/09/30 09:41:49;;;;;;;0.60;0.60;;;;;;;24.81;35.74;99859.94;4951156;28;20497;-70
2023/09/30 09:44:19;;;;;;;0.60;0.60;;;;;;;25.20;35.07;99895.38;4954621;28;20046;-70
2023/09/30 09:46:47;;;;;;;0.60;0.60;;;;;;;25.23;34.89;99882.66;4951922;28;20043;-69
2023/09/30 09:49:15;;;;;;;0.30;0.30;;;;;;;25.23;34.53;99869.44;4946790;28;20130;-69
2023/09/30 09:51:44;;;;;;;0.68;0.68;;;;;;;24.95;35.48;99875.34;4930038;28;20090;-69
2023/09/30 09:54:14;;;;;;;0.43;0.43;;;;;;;25.46;34.27;99871.44;4950316;28;20043;-69
2023/09/30 09:56:42;;;;;;;0.40;0.40;;;;;;;24.71;35.42;99875.28;4942214;28;20146;-69
2023/09/30 09:59:11;;;;;;;0.30;0.30;;;;;;;23.82;36.43;99847.88;4955223;28;20047;-69
2023/09/30 10:01:39;;;;;;;0.40;0.40;;;;;;;23.69;36.94;99857.53;4947908;28;20051;-70
2023/09/30 10:04:06;;;;;;;0.30;0.30;;;;;;;24.59;35.89;99862.28;4956091;28;20054;-69
2023/09/30 10:06:38;;;;;;;0.60;0.60;;;;;;;24.30;36.10;99870.09;4960901;28;20175;-70
2023/09/30 10:09:07;;;;;;;0.50;0.50;;;;;;;24.79;35.38;99865.09;4948443;28;20051;-70
2023/09/30 10:11:35;;;;;;;0.40;0.40;;;;;;;24.19;36.07;99861.47;4943433;28;20047;-71
2023/09/30 10:14:06;;;;;;;0.50;0.50;;;;;;;24.11;36.60;99856.09;4939158;28;20043;-68
2023/09/30 10:16:57;;;;;;;0.40;0.40;;;;;;;25.28;34.18;99855.16;4961111;28;20055;-70
2023/09/30 10:19:24;;;;;;;0.55;0.55;;;;;;;25.91;32.66;99857.75;4922573;28;20063;-69
2023/09/30 10:22:27;;;;;;;0.40;0.40;;;;;;;25.60;32.61;99846.50;4952467;28;20469;-69
2023/09/30 10:24:55;;;;;;;0.40;0.40;;;;;;;25.18;33.25;99855.78;4965551;28;20534;-70
2023/09/30 10:27:37;;;;;;;0.40;0.40;;;;;;;25.02;34.58;99858.69;4951924;28;20459;-69
2023/09/30 10:30:13;;;;;;;0.57;0.57;;;;;;;25.37;33.74;99863.31;4953188;28;20099;-69
2023/09/30 10:33:09;;;;;;;0.60;0.60;;;;;;;26.86;31.62;99860.53;4946279;28;20483;-69
2023/09/30 10:35:46;;;;;;;0.60;0.60;;;;;;;27.92;28.98;99844.53;4949330;28;20058;-69
2023/09/30 10:38:40;;;;;;;0.40;0.40;;;;;;;27.51;29.77;99839.84;4953013;28;20724;-70
2023/09/30 10:41:10;;;;;;;0.40;0.40;;;;;;;26.32;33.05;99849.53;4951563;28;20043;-69
2023/09/30 10:43:40;;;;;;;0.70;0.70;;;;;;;26.99;32.30;99840.63;4956182;28;20043;-70
2023/09/30 10:46:32;;;;;;;0.70;0.70;;;;;;;27.78;29.72;99846.06;4942493;28;20519;-70
2023/09/30 10:49:17;;;;;;;0.70;0.70;;;;;;;28.42;28.58;99830.75;4969466;28;20094;-69
2023/09/30 10:51:44;;;;;;;0.80;0.80;;;;;;;28.37;28.87;99838.78;4956355;28;20418;-70
2023/09/30 10:54:12;;;;;;;0.90;0.90;;;;;;;28.78;28.36;99827.22;4956479;28;20058;-70
2023/09/30 10:56:39;;;;;;;0.82;0.82;;;;;;;29.56;27.67;99830.50;4948775;28;20546;-69
2023/09/30 10:59:07;;;;;;;0.40;0.40;;;;;;;28.96;28.23;99824.47;4965609;28;20410;-69
2023/09/30 11:01:34;;;;;;;0.30;0.30;;;;;;;27.77;29.88;99847.25;4974039;28;20102;-70
2023/09/30 11:04:05;;;;;;;;;;;;;;;26.96;30.68;99828.19;4975544;28;20802;-69
2023/09/30 11:06:31;;;;;;;0.70;0.70;;;;;;;26.25;32.35;99824.19;4944511;28;19933;-69
2023/09/30 11:09:02;;;;;;;0.90;0.90;;;;;;;25.92;32.36;99825.75;4951696;28;20066;-70
2023/09/30 11:11:37;;;;;;;1.00;1.00;;;;;;;26.57;31.92;99809.75;4964899;28;20047;-70
2023/09/30 11:14:05;;;;;;;1.00;1.00;;;;;;;27.67;30.03;99815.13;4963271;28;20109;-70
2023/09/30 11:16:53;;;;;;;0.80;0.80;;;;;;;28.63;28.89;99812.34;4947718;28;20082;-70
2023/09/30 11:19:24;;;;;;;1.08;1.08;;;;;;;28.76;28.17;99809.94;4945659;28;20601;-69
2023/09/30 11:21:52;;;;;;;0.90;0.90;;;;;;;29.51;27.83;99808.41;4947353;29;20064;-70
2023/09/30 11:24:19;;;;;;;1.10;1.10;;;;;;;29.94;27.02;99820.75;4950933;28;20038;-70
2023/09/30 11:26:46;;;;;;;1.00;1.00;;;;;;;29.78;27.04;99802.28;4951145;28;20526;-70
2023/09/30 11:29:13;;;;;;;;;;;;;;;29.01;28.30;99795.13;4946960;28;20047;-70
2023/09/30 11:31:42;;;;;;;0.68;0.68;;;;;;;29.11;28.08;99797.16;4934353;28;19931;-70
2023/09/30 11:34:11;;;;;;;1.10;1.10;;;;;;;28.66;29.07;99796.69;4959448;28;20047;-70
2023/09/30 11:36:40;;;;;;;1.27;1.20;;;;;;;29.35;28.24;99793.88;4960725;28;20078;-69
2023/09/30 11:39:09;;;;;;;1.02;1.02;;;;;;;30.14;26.71;99790.91;4962963;28;20418;-69